createdAt,value
2019-05-06T00:00:30.420Z,98510.55
2019-05-06T00:02:58.926Z,98502.53
2019-05-06T00:05:27.495Z,98502.17
2019-05-06T00:07:55.986Z,98488.20
2019-05-06T00:10:28.490Z,98474.48
2019-05-06T00:12:57.639Z,98472.09
2019-05-06T00:15:26.922Z,98470.08
2019-05-06T00:17:55.399Z,98472.62
2019-05-06T00:20:24.542Z,98467.95
2019-05-06T00:22:56.393Z,98456.33
2019-05-06T00:25:54.309Z,98455.84
2019-05-06T00:28:28.299Z,98457.50
2019-05-06T00:31:09.536Z,98447.63
2019-05-06T00:33:28.616Z,98447.34
2019-05-06T00:35:58.804Z,98444.69
2019-05-06T00:38:27.310Z,98450.41
2019-05-06T00:40:59.174Z,98452.26
2019-05-06T00:43:27.810Z,98463.69
2019-05-06T00:45:56.398Z,98460.75
2019-05-06T00:48:25.135Z,98457.25
2019-05-06T00:50:53.751Z,98460.34
2019-05-06T00:53:24.468Z,98460.30
2019-05-06T00:55:53.786Z,98457.33
2019-05-06T00:58:23.847Z,98462.24
2019-05-06T01:00:53.888Z,98457.84
2019-05-06T01:03:23.787Z,98460.17
2019-05-06T01:05:54.272Z,98451.57
2019-05-06T01:08:23.977Z,98464.62
2019-05-06T01:10:54.560Z,98458.89
2019-05-06T01:13:37.379Z,98458.53
2019-05-06T01:16:06.400Z,98459.59
2019-05-06T01:18:34.986Z,98460.27
2019-05-06T01:21:09.479Z,98462.41
2019-05-06T01:23:41.133Z,98461.73
2019-05-06T01:26:09.767Z,98463.65
2019-05-06T01:28:38.395Z,98467.72
2019-05-06T01:31:06.896Z,98461.86
2019-05-06T01:33:35.452Z,98463.19
2019-05-06T01:36:04.576Z,98467.36
2019-05-06T01:38:53.526Z,98463.17
2019-05-06T01:41:46.374Z,98462.66
2019-05-06T01:44:14.780Z,98462.05
2019-05-06T01:46:44.763Z,98459.20
2019-05-06T01:49:13.770Z,98458.98
2019-05-06T01:51:43.799Z,98450.00
2019-05-06T01:54:14.173Z,98460.63
2019-05-06T01:56:44.464Z,98451.18
2019-05-06T01:59:13.981Z,98460.31
2019-05-06T02:01:54.846Z,98449.87
2019-05-06T02:04:13.806Z,98458.36
2019-05-06T02:06:43.799Z,98458.98
2019-05-06T02:09:16.277Z,98454.36
2019-05-06T02:11:47.745Z,98454.67
2019-05-06T02:14:15.436Z,98455.45
2019-05-06T02:16:43.931Z,98453.34
2019-05-06T02:19:14.687Z,98448.13
2019-05-06T02:22:08.236Z,98452.23
2019-05-06T02:24:53.636Z,98452.30
2019-05-06T02:27:24.260Z,98456.93
2019-05-06T02:30:00.901Z,98453.90
2019-05-06T02:32:51.721Z,98459.91
2019-05-06T02:35:26.412Z,98462.92
2019-05-06T02:37:54.983Z,98462.50
2019-05-06T02:40:25.810Z,98463.83
2019-05-06T02:42:55.151Z,98463.59
2019-05-06T02:45:24.463Z,98464.64
2019-05-06T02:48:13.948Z,98463.45
2019-05-06T02:51:17.541Z,98465.14
2019-05-06T02:53:46.223Z,98460.89
2019-05-06T02:56:14.795Z,98461.28
2019-05-06T02:58:43.804Z,98448.68
2019-05-06T03:01:13.547Z,98442.11
2019-05-06T03:03:43.676Z,98434.79
2019-05-06T03:06:13.267Z,98433.05
2019-05-06T03:08:43.432Z,98448.74
2019-05-06T03:11:13.549Z,98451.03
2019-05-06T03:13:43.723Z,98453.84
2019-05-06T03:16:14.237Z,98460.10
2019-05-06T03:18:43.457Z,98457.96
2019-05-06T03:21:37.137Z,98465.30
2019-05-06T03:24:24.163Z,98470.23
2019-05-06T03:26:57.001Z,98474.30
2019-05-06T03:29:25.332Z,98476.11
2019-05-06T03:31:56.272Z,98481.69
2019-05-06T03:34:49.479Z,98486.16
2019-05-06T03:36:56.551Z,98485.85
2019-05-06T03:39:25.562Z,98490.09
2019-05-06T03:41:54.060Z,98494.08
2019-05-06T03:44:23.986Z,98498.59
2019-05-06T03:47:13.672Z,98501.86
2019-05-06T03:49:44.675Z,98505.77
2019-05-06T03:52:13.676Z,98510.70
2019-05-06T03:54:45.342Z,98508.48
2019-05-06T03:57:14.047Z,98510.78
2019-05-06T03:59:43.792Z,98515.84
2019-05-06T04:02:13.358Z,98513.11
2019-05-06T04:04:43.931Z,98519.97
2019-05-06T04:07:14.041Z,98521.87
2019-05-06T04:09:44.195Z,98519.70
2019-05-06T04:12:13.635Z,98529.34
2019-05-06T04:14:43.338Z,98522.92
2019-05-06T04:17:23.633Z,98525.37
2019-05-06T04:19:55.957Z,98530.80
2019-05-06T04:22:37.478Z,98529.84
2019-05-06T04:25:34.604Z,98532.39
2019-05-06T04:28:12.873Z,98531.22
2019-05-06T04:30:42.810Z,98530.33
2019-05-06T04:33:16.882Z,98530.13
2019-05-06T04:35:43.099Z,98527.63
2019-05-06T04:38:13.914Z,98530.28
2019-05-06T04:40:43.987Z,98533.56
2019-05-06T04:43:13.526Z,98526.75
2019-05-06T04:45:43.307Z,98525.06
2019-05-06T04:48:14.405Z,98529.04
2019-05-06T04:50:44.294Z,98524.22
2019-05-06T04:53:13.812Z,98533.50
2019-05-06T04:55:43.869Z,98528.19
2019-05-06T04:58:13.512Z,98527.84
2019-05-06T05:00:44.574Z,98528.98
2019-05-06T05:03:13.928Z,98519.99
2019-05-06T05:05:44.765Z,98527.98
2019-05-06T05:08:13.788Z,98528.14
2019-05-06T05:10:53.014Z,98528.42
2019-05-06T05:13:43.338Z,98526.88
2019-05-06T05:16:33.179Z,98514.91
2019-05-06T05:19:05.120Z,98512.09
2019-05-06T05:21:33.824Z,98511.26
2019-05-06T05:24:02.418Z,98512.91
2019-05-06T05:26:32.211Z,98515.03
2019-05-06T05:29:02.810Z,98509.74
2019-05-06T05:31:33.195Z,98511.95
2019-05-06T05:34:02.315Z,98511.84
2019-05-06T05:36:32.865Z,98509.70
2019-05-06T05:39:03.321Z,98506.53
2019-05-06T05:41:33.129Z,98507.29
2019-05-06T05:44:13.754Z,98504.52
2019-05-06T05:46:43.876Z,98503.50
2019-05-06T05:49:42.067Z,98493.70
2019-05-06T05:52:12.747Z,98498.02
2019-05-06T05:54:42.371Z,98491.60
2019-05-06T05:57:11.884Z,98501.23
2019-05-06T05:59:42.207Z,98496.09
2019-05-06T06:02:12.840Z,98499.63
2019-05-06T06:04:53.722Z,98495.59
2019-05-06T06:07:12.499Z,98492.16
2019-05-06T06:09:49.867Z,98494.45
2019-05-06T06:12:18.482Z,98491.52
2019-05-06T06:15:06.531Z,98487.76
2019-05-06T06:17:51.952Z,98489.19
2019-05-06T06:20:58.402Z,98486.55
2019-05-06T06:23:33.543Z,98490.55
2019-05-06T06:26:04.055Z,98469.77
2019-05-06T06:28:33.354Z,98478.91
2019-05-06T06:31:12.106Z,98475.59
2019-05-06T06:33:42.849Z,98469.64
2019-05-06T06:36:29.744Z,98474.34
2019-05-06T06:39:12.449Z,98477.23
2019-05-06T06:41:42.373Z,98481.23
2019-05-06T06:44:14.922Z,98483.59
2019-05-06T06:46:43.636Z,98487.62
2019-05-06T06:49:12.726Z,98485.45
2019-05-06T06:51:42.489Z,98493.98
2019-05-06T06:54:12.321Z,98490.81
2019-05-06T06:57:01.890Z,98497.20
2019-05-06T06:59:33.200Z,98488.53
2019-05-06T07:02:07.476Z,98490.53
2019-05-06T07:04:43.105Z,98485.72
2019-05-06T07:07:13.039Z,98483.89
2019-05-06T07:09:42.043Z,98489.91
2019-05-06T07:12:13.189Z,98488.24
2019-05-06T07:14:42.819Z,98489.91
2019-05-06T07:17:13.336Z,98479.88
2019-05-06T07:19:47.640Z,98483.73
2019-05-06T07:22:16.156Z,98475.55
2019-05-06T07:24:44.847Z,98481.23
2019-05-06T07:27:18.405Z,98485.91
2019-05-06T07:29:48.802Z,98469.36
2019-05-06T07:32:17.441Z,98459.18
2019-05-06T07:34:46.040Z,98462.16
2019-05-06T07:37:14.613Z,98464.52
2019-05-06T07:39:43.750Z,98468.29
2019-05-06T07:42:18.310Z,98465.30
2019-05-06T07:45:14.439Z,98464.94
2019-05-06T07:47:48.361Z,98461.28
2019-05-06T07:50:16.875Z,98456.44
2019-05-06T07:53:03.609Z,98464.56
2019-05-06T07:55:32.765Z,98454.55
2019-05-06T07:58:02.942Z,98447.67
2019-05-06T08:00:32.780Z,98453.70
2019-05-06T08:03:02.522Z,98439.84
2019-05-06T08:05:32.475Z,98445.16
2019-05-06T08:08:03.530Z,98429.06
2019-05-06T08:10:33.149Z,98432.55
2019-05-06T08:13:02.796Z,98434.72
2019-05-06T08:15:32.565Z,98431.58
2019-05-06T08:18:03.361Z,98434.19
2019-05-06T08:20:38.709Z,98438.91
2019-05-06T08:23:28.315Z,98433.55
2019-05-06T08:26:09.204Z,98436.18
2019-05-06T08:28:38.563Z,98427.61
2019-05-06T08:30:59.613Z,98432.34
2019-05-06T08:33:28.217Z,98436.00
2019-05-06T08:36:08.861Z,98433.85
2019-05-06T08:38:28.072Z,98441.67
2019-05-06T08:40:56.670Z,98444.70
2019-05-06T08:43:25.189Z,98440.67
2019-05-06T08:45:53.726Z,98447.41
2019-05-06T08:48:22.331Z,98449.77
2019-05-06T08:50:56.249Z,98457.48
2019-05-06T08:53:37.982Z,98459.08
2019-05-06T08:56:08.078Z,98456.98
2019-05-06T08:58:45.882Z,98457.09
2019-05-06T09:01:38.159Z,98456.27
2019-05-06T09:04:12.492Z,98455.88
2019-05-06T09:06:37.462Z,98459.28
2019-05-06T09:09:07.636Z,98455.98
2019-05-06T09:11:36.389Z,98458.17
2019-05-06T09:14:05.003Z,98450.48
2019-05-06T09:16:33.515Z,98447.84
2019-05-06T09:19:04.290Z,98437.31
2019-05-06T09:21:33.566Z,98445.98
2019-05-06T09:24:02.546Z,98440.00
2019-05-06T09:26:43.137Z,98442.33
2019-05-06T09:29:18.333Z,98444.81
2019-05-06T09:31:52.053Z,98436.63
2019-05-06T09:34:26.997Z,98439.47
2019-05-06T09:37:13.303Z,98440.95
2019-05-06T09:39:44.117Z,98426.11
2019-05-06T09:42:13.597Z,98421.45
2019-05-06T09:44:43.003Z,98410.77
2019-05-06T09:47:43.137Z,98417.42
2019-05-06T09:50:14.756Z,98415.25
2019-05-06T09:52:43.858Z,98402.22
2019-05-06T09:55:35.541Z,98404.22
2019-05-06T09:58:05.621Z,98409.41
2019-05-06T10:00:38.976Z,98412.03
2019-05-06T10:03:07.496Z,98403.36
2019-05-06T10:05:36.077Z,98394.93
2019-05-06T10:08:05.009Z,98393.13
2019-05-06T10:10:33.641Z,98392.45
2019-05-06T10:13:02.713Z,98380.72
2019-05-06T10:15:32.629Z,98372.79
2019-05-06T10:18:07.871Z,98360.65
2019-05-06T10:20:44.965Z,98358.76
2019-05-06T10:23:13.859Z,98365.50
2019-05-06T10:25:44.028Z,98360.34
2019-05-06T10:28:27.168Z,98370.55
2019-05-06T10:30:55.804Z,98361.94
2019-05-06T10:33:25.646Z,98359.02
2019-05-06T10:35:56.250Z,98359.30
2019-05-06T10:38:52.740Z,98360.80
2019-05-06T10:41:25.331Z,98344.64
2019-05-06T10:44:14.183Z,98349.09
2019-05-06T10:46:43.134Z,98347.91
2019-05-06T10:49:13.169Z,98353.05
2019-05-06T10:52:02.200Z,98332.09
2019-05-06T10:54:31.865Z,98341.76
2019-05-06T10:57:32.860Z,98335.27
2019-05-06T11:00:01.642Z,98346.20
2019-05-06T11:02:58.941Z,98344.52
2019-05-06T11:05:27.435Z,98339.02
2019-05-06T11:07:56.021Z,98338.78
2019-05-06T11:10:29.932Z,98346.55
2019-05-06T11:12:55.208Z,98343.66
2019-05-06T11:15:23.701Z,98347.36
2019-05-06T11:17:52.196Z,98335.70
2019-05-06T11:20:24.118Z,98338.00
2019-05-06T11:22:53.333Z,98331.69
2019-05-06T11:25:23.030Z,98327.72
2019-05-06T11:27:52.644Z,98329.39
2019-05-06T11:30:39.754Z,98325.70
2019-05-06T11:33:27.910Z,98328.40
2019-05-06T11:36:02.242Z,98332.34
2019-05-06T11:38:32.260Z,98335.78
2019-05-06T11:41:01.776Z,98338.54
2019-05-06T11:43:32.481Z,98321.84
2019-05-06T11:46:01.555Z,98325.48
2019-05-06T11:48:32.614Z,98320.34
2019-05-06T11:51:03.270Z,98302.22
2019-05-06T11:53:32.631Z,98294.86
2019-05-06T11:56:02.186Z,98304.86
2019-05-06T11:58:56.128Z,98307.23
2019-05-06T12:01:53.368Z,98308.02
2019-05-06T12:04:23.229Z,98317.23
2019-05-06T12:07:09.994Z,98306.69
2019-05-06T12:09:23.923Z,98304.03
2019-05-06T12:11:53.058Z,98294.36
2019-05-06T12:14:22.794Z,98291.68
2019-05-06T12:16:54.848Z,98292.09
2019-05-06T12:19:22.655Z,98279.30
2019-05-06T12:21:51.711Z,98281.56
2019-05-06T12:24:20.227Z,98268.87
2019-05-06T12:26:48.804Z,98262.14
2019-05-06T12:29:17.518Z,98255.70
2019-05-06T12:31:52.819Z,98254.56
2019-05-06T12:34:20.884Z,98252.89
2019-05-06T12:36:52.898Z,98246.48
2019-05-06T12:39:44.079Z,98248.23
2019-05-06T12:42:23.754Z,98235.04
2019-05-06T12:45:14.681Z,98228.95
2019-05-06T12:47:53.422Z,98215.77
2019-05-06T12:50:22.755Z,98211.31
2019-05-06T12:52:52.633Z,98194.17
2019-05-06T12:55:25.313Z,98185.70
2019-05-06T12:57:54.523Z,98175.97
2019-05-06T13:00:24.329Z,98180.41
2019-05-06T13:02:53.313Z,98176.24
2019-05-06T13:05:22.315Z,98168.28
2019-05-06T13:07:52.718Z,98147.97
2019-05-06T13:10:23.268Z,98166.39
2019-05-06T13:13:04.120Z,98146.00
2019-05-06T13:15:32.913Z,98145.70
2019-05-06T13:18:06.440Z,98133.95
2019-05-06T13:20:34.184Z,98152.39
2019-05-06T13:23:20.096Z,98136.06
2019-05-06T13:25:44.839Z,98143.83
2019-05-06T13:28:13.440Z,98135.99
2019-05-06T13:30:43.316Z,98135.91
2019-05-06T13:33:20.658Z,98144.80
2019-05-06T13:35:49.655Z,98146.84
2019-05-06T13:38:18.259Z,98136.08
2019-05-06T13:40:53.996Z,98132.17
2019-05-06T13:43:46.372Z,98146.20
2019-05-06T13:46:23.155Z,98139.70
2019-05-06T13:49:13.369Z,98142.09
2019-05-06T13:51:45.798Z,98153.03
2019-05-06T13:54:16.162Z,98146.38
2019-05-06T13:56:45.253Z,98145.89
2019-05-06T13:59:15.336Z,98151.20
2019-05-06T14:02:16.284Z,98147.38
2019-05-06T14:04:45.588Z,98137.66
2019-05-06T14:07:14.285Z,98135.71
2019-05-06T14:09:43.793Z,98138.10
2019-05-06T14:12:12.526Z,98135.48
2019-05-06T14:14:43.153Z,98134.37
2019-05-06T14:17:12.788Z,98133.64
2019-05-06T14:19:42.875Z,98126.25
2019-05-06T14:22:12.674Z,98135.84
2019-05-06T14:24:46.289Z,98133.72
2019-05-06T14:27:17.665Z,98138.58
2019-05-06T14:29:59.780Z,98134.64
2019-05-06T14:32:28.286Z,98132.38
2019-05-06T14:34:57.071Z,98139.20
2019-05-06T14:37:25.597Z,98126.11
2019-05-06T14:39:59.493Z,98126.26
2019-05-06T14:42:26.416Z,98139.58
2019-05-06T14:44:55.115Z,98133.89
2019-05-06T14:47:26.005Z,98131.27
2019-05-06T14:49:54.603Z,98131.61
2019-05-06T14:52:23.125Z,98136.52
2019-05-06T14:54:53.890Z,98144.05
2019-05-06T14:57:23.429Z,98155.41
2019-05-06T14:59:55.470Z,98159.17
2019-05-06T15:02:26.647Z,98174.92
2019-05-06T15:04:55.642Z,98171.59
2019-05-06T15:07:24.151Z,98189.80
2019-05-06T15:10:02.394Z,98197.44
2019-05-06T15:12:23.593Z,98210.58
2019-05-06T15:14:52.755Z,98220.81
2019-05-06T15:17:22.958Z,98224.52
2019-05-06T15:19:52.903Z,98232.56
2019-05-06T15:22:22.558Z,98239.92
2019-05-06T15:24:53.750Z,98251.08
2019-05-06T15:27:22.856Z,98253.86
2019-05-06T15:29:54.777Z,98261.28
2019-05-06T15:32:32.841Z,98273.02
2019-05-06T15:35:26.977Z,98274.19
2019-05-06T15:38:02.230Z,98265.38
2019-05-06T15:40:35.954Z,98272.18
2019-05-06T15:43:02.294Z,98264.70
2019-05-06T15:45:32.507Z,98274.05
2019-05-06T15:48:02.675Z,98269.69
2019-05-06T15:50:32.895Z,98261.34
2019-05-06T15:53:01.986Z,98263.70
2019-05-06T15:55:32.658Z,98268.38
2019-05-06T15:58:03.424Z,98256.68
2019-05-06T16:00:33.089Z,98266.36
2019-05-06T16:03:02.662Z,98267.52
2019-05-06T16:05:34.352Z,98276.70
2019-05-06T16:08:02.849Z,98276.66
2019-05-06T16:10:37.870Z,98269.34
2019-05-06T16:13:02.524Z,98275.49
2019-05-06T16:15:33.517Z,98281.52
2019-05-06T16:18:04.080Z,98291.52
2019-05-06T16:20:33.264Z,98297.03
2019-05-06T16:23:27.597Z,98299.11
2019-05-06T16:25:56.185Z,98301.83
2019-05-06T16:28:24.929Z,98304.67
2019-05-06T16:30:53.710Z,98315.09
2019-05-06T16:33:22.631Z,98318.68
2019-05-06T16:35:52.255Z,98319.84
2019-05-06T16:38:23.023Z,98324.13
2019-05-06T16:41:02.196Z,98326.27
2019-05-06T16:43:22.283Z,98325.52
2019-05-06T16:45:53.190Z,98327.22
2019-05-06T16:48:22.567Z,98336.55
2019-05-06T16:50:51.575Z,98343.78
2019-05-06T16:53:20.382Z,98347.73
2019-05-06T16:56:17.750Z,98347.99
2019-05-06T16:58:52.686Z,98347.47
2019-05-06T17:01:22.125Z,98347.52
2019-05-06T17:04:09.751Z,98339.22
2019-05-06T17:06:39.374Z,98348.13
2019-05-06T17:09:20.068Z,98360.56
2019-05-06T17:11:42.490Z,98370.34
2019-05-06T17:14:12.277Z,98364.10
2019-05-06T17:16:42.391Z,98364.59
2019-05-06T17:19:12.672Z,98367.64
2019-05-06T17:21:42.418Z,98363.30
2019-05-06T17:24:13.102Z,98374.31
2019-05-06T17:26:42.590Z,98371.75
2019-05-06T17:29:19.338Z,98363.33
2019-05-06T17:32:02.694Z,98374.77
2019-05-06T17:34:34.250Z,98383.53
2019-05-06T17:37:09.538Z,98373.92
2019-05-06T17:39:38.217Z,98381.80
2019-05-06T17:42:06.945Z,98394.16
2019-05-06T17:44:35.564Z,98403.29
2019-05-06T17:47:22.920Z,98410.88
2019-05-06T17:49:52.918Z,98408.84
2019-05-06T17:52:22.476Z,98426.22
2019-05-06T17:54:52.803Z,98426.62
2019-05-06T17:57:22.499Z,98430.92
2019-05-06T17:59:52.813Z,98430.75
2019-05-06T18:02:23.589Z,98428.11
2019-05-06T18:04:53.274Z,98429.88
2019-05-06T18:07:22.450Z,98432.66
2019-05-06T18:09:52.197Z,98432.82
2019-05-06T18:12:22.607Z,98437.81
2019-05-06T18:14:54.115Z,98442.27
2019-05-06T18:17:22.812Z,98448.19
2019-05-06T18:19:51.363Z,98444.24
2019-05-06T18:22:22.612Z,98451.45
2019-05-06T18:24:52.566Z,98463.42
2019-05-06T18:27:22.646Z,98474.62
2019-05-06T18:29:53.244Z,98476.97
2019-05-06T18:32:23.411Z,98482.61
2019-05-06T18:34:55.202Z,98486.51
2019-05-06T18:37:25.397Z,98492.75
2019-05-06T18:39:54.196Z,98494.97
2019-05-06T18:42:23.818Z,98488.02
2019-05-06T18:44:52.477Z,98492.91
2019-05-06T18:47:21.173Z,98493.34
2019-05-06T18:49:52.264Z,98501.86
2019-05-06T18:52:22.881Z,98504.67
2019-05-06T18:54:52.641Z,98509.78
2019-05-06T18:57:22.654Z,98514.60
2019-05-06T18:59:53.492Z,98525.66
2019-05-06T19:02:23.013Z,98526.20
2019-05-06T19:05:07.971Z,98537.93
2019-05-06T19:07:37.365Z,98539.14
2019-05-06T19:10:12.852Z,98540.66
2019-05-06T19:12:41.936Z,98543.55
2019-05-06T19:15:12.624Z,98544.85
2019-05-06T19:17:44.078Z,98547.42
2019-05-06T19:20:12.753Z,98548.96
2019-05-06T19:22:43.466Z,98559.20
2019-05-06T19:25:14.628Z,98555.92
2019-05-06T19:27:45.231Z,98560.30
2019-05-06T19:30:14.208Z,98565.69
2019-05-06T19:32:45.365Z,98568.63
2019-05-06T19:35:14.415Z,98574.45
2019-05-06T19:37:43.349Z,98584.91
2019-05-06T19:40:12.637Z,98586.70
2019-05-06T19:42:46.985Z,98585.16
2019-05-06T19:45:13.018Z,98600.61
2019-05-06T19:47:42.533Z,98588.14
2019-05-06T19:50:11.335Z,98583.75
2019-05-06T19:52:42.039Z,98566.71
2019-05-06T19:55:12.370Z,98557.47
2019-05-06T19:57:43.084Z,98535.56
2019-05-06T20:00:12.541Z,98533.59
2019-05-06T20:02:42.960Z,98537.28
2019-05-06T20:05:22.658Z,98549.67
2019-05-06T20:08:07.353Z,98557.70
2019-05-06T20:10:58.479Z,98568.11
2019-05-06T20:13:27.043Z,98571.47
2019-05-06T20:15:55.633Z,98568.11
2019-05-06T20:18:24.121Z,98562.23
2019-05-06T20:20:52.948Z,98563.23
2019-05-06T20:23:23.195Z,98566.91
2019-05-06T20:25:52.211Z,98573.49
2019-05-06T20:28:22.779Z,98578.40
2019-05-06T20:30:52.889Z,98573.69
2019-05-06T20:33:22.073Z,98582.80
2019-05-06T20:35:52.546Z,98587.36
2019-05-06T20:38:23.196Z,98600.83
2019-05-06T20:40:51.798Z,98611.24
2019-05-06T20:43:23.741Z,98608.83
2019-05-06T20:45:52.137Z,98607.88
2019-05-06T20:48:23.328Z,98611.56
2019-05-06T20:50:52.426Z,98614.50
2019-05-06T20:53:23.215Z,98608.49
2019-05-06T20:55:53.183Z,98606.27
2019-05-06T20:58:23.122Z,98603.95
2019-05-06T21:00:52.333Z,98610.23
2019-05-06T21:03:22.163Z,98622.84
2019-05-06T21:05:51.394Z,98625.19
2019-05-06T21:08:21.932Z,98628.45
2019-05-06T21:10:52.880Z,98634.13
2019-05-06T21:13:31.758Z,98629.84
2019-05-06T21:15:52.979Z,98632.38
2019-05-06T21:18:22.914Z,98634.19
2019-05-06T21:20:52.105Z,98634.05
2019-05-06T21:23:22.705Z,98626.63
2019-05-06T21:25:52.332Z,98619.31
2019-05-06T21:28:23.571Z,98613.31
2019-05-06T21:30:52.362Z,98610.69
2019-05-06T21:33:22.124Z,98597.13
2019-05-06T21:35:52.225Z,98589.30
2019-05-06T21:38:22.670Z,98587.02
2019-05-06T21:40:52.588Z,98580.30
2019-05-06T21:43:22.655Z,98585.00
2019-05-06T21:45:51.502Z,98581.39
2019-05-06T21:48:22.079Z,98589.58
2019-05-06T21:50:52.246Z,98592.92
2019-05-06T21:53:22.905Z,98601.58
2019-05-06T21:55:52.519Z,98607.56
2019-05-06T21:58:23.203Z,98603.38
2019-05-06T22:01:03.887Z,98606.51
2019-05-06T22:03:32.945Z,98605.89
2019-05-06T22:06:02.392Z,98616.57
2019-05-06T22:08:32.849Z,98627.25
2019-05-06T22:11:02.948Z,98630.97
2019-05-06T22:13:33.262Z,98643.95
2019-05-06T22:16:04.649Z,98661.63
2019-05-06T22:18:32.425Z,98676.46
2019-05-06T22:21:23.059Z,98666.27
2019-05-06T22:23:57.010Z,98664.08
2019-05-06T22:26:25.839Z,98663.16
2019-05-06T22:28:55.005Z,98664.78
2019-05-06T22:31:24.572Z,98671.10
2019-05-06T22:33:53.449Z,98671.01
2019-05-06T22:36:22.742Z,98672.18
2019-05-06T22:38:53.073Z,98670.86
2019-05-06T22:41:24.840Z,98666.20
2019-05-06T22:43:53.172Z,98672.05
2019-05-06T22:46:23.405Z,98667.61
2019-05-06T22:48:54.521Z,98667.17
2019-05-06T22:51:23.426Z,98667.13
2019-05-06T22:53:53.192Z,98659.70
2019-05-06T22:56:22.863Z,98661.63
2019-05-06T22:58:52.396Z,98655.75
2019-05-06T23:01:58.490Z,98664.11
2019-05-06T23:04:28.912Z,98650.56
2019-05-06T23:06:57.398Z,98649.75
2019-05-06T23:09:25.869Z,98652.01
2019-05-06T23:11:54.466Z,98654.92
2019-05-06T23:14:30.774Z,98647.93
2019-05-06T23:16:53.378Z,98655.75
2019-05-06T23:19:24.285Z,98644.47
2019-05-06T23:21:53.287Z,98645.88
2019-05-06T23:24:22.494Z,98638.03
2019-05-06T23:26:54.285Z,98629.58
2019-05-06T23:29:22.441Z,98633.51
2019-05-06T23:31:52.214Z,98629.50
2019-05-06T23:34:22.948Z,98623.18
2019-05-06T23:37:17.158Z,98619.44
2019-05-06T23:40:22.386Z,98611.88
2019-05-06T23:43:27.848Z,98612.09
2019-05-06T23:46:32.828Z,98600.70
2019-05-06T23:49:39.453Z,98606.64
2019-05-06T23:52:44.385Z,98592.66
2019-05-06T23:55:51.816Z,98585.26
2019-05-06T23:58:18.930Z,98575.62
